Airfield :
LOGIN :

Register | Disclaimer

   EN    FR    IT 

 










Legend :    VFR   Marginal VFR   IFR   Intensive IFR   Very Intensive IFR
Visi :
Ceiling :
>= 8 km
>= 3000ft
5 to 8 km
1000 to 3000 ft
1500m to 5 km
500 to 1000 ft
800 to 1500m
200 to 500 ft
< 800m
< 200 ft
Symbols :   Thunderstorms  Fog  Heavy snow  Heavy precipitations  Wind > 20 kt
SIGMETs :     Misc.  Thunderstorms  Icing  Turbulence  Mountain Waves  Volcanic Ashes







- Airport Elevation : 776 ft
- IATA code : RMS


ETAR - Ramstein Air Base

CURRENT METAR :
  • 171756Z 00000KT 9999 CLR 12/12 A3010 RMK AO2A SLP201 T01200120 10225 20120 55005 $

EXPIRED METARs :
  • 171656Z 00000KT 9999 CLR 14/14 A3010 RMK AO2A SLP200 T01410139 $
  • 171556Z 00000KT 9999 CLR 19/17 A3010 RMK AO2A SLP197 T01890165 $

TAF TAF ETAR
Valid from the 17 at 18:00 until the 19 at 00:00 UTC


171803Z 1718/1824 VRB06KT 9999 SKC QNH3006INS
BECMG 1719/1720 VRB06KT 8000 BR SKC QNH2999INS
TEMPO 1723/1803 3200 BR
BECMG 1806/1807 22009KT 9999 NSW SCT200 QNH2993INS
TEMPO 1809/1814 22010G15KT
BECMG 1820/1821 VRB06KT 8000 BR SKC QNH2990INS TX25/1815Z TN04/1803Z
No reported NOTAMs for that airfield.



MET'MAP, your aeronautical weather chart ! - Copyright ORBIFLY December 2007 - Disclaimer

ORBIFLY MET'MAP TEAM :

Programming & Development : Alexandra Zaïnal
Concept & Development : Baudouin d'Aumeries
Co-Development & Prog : Marc-Olivier Méhu
Technical & hardware support : Manuel Goepfert

Contact : metmap@orbifly.com




SOURCES & CREDITS :

   NOAA